Time;durP1;ratioP1;P1;durP2;ratioP2;P2;SDS_P1;SDS_P2;PMS_P1;PMS_P2;Temp;Humidity;BMP_temperature;BMP_pressure;BME280_temperature;BME280_humidity;BME280_pressure;Samples;Min_cycle;Max_cycle;Signal;HPM_P1;HPM_P2
2021/01/20 00:00:45;;;;;;;221.30;35.17;;;;;;;-19.59;77.23;101490.36;1735952;82;20996;-31
2021/01/20 00:03:13;;;;;;;839.63;58.75;;;;;;;-19.60;77.21;101484.90;1735880;82;21058;-32
2021/01/20 00:05:41;;;;;;;287.45;37.70;;;;;;;-19.60;77.25;101484.56;1735936;82;20932;-30
2021/01/20 00:08:09;;;;;;;1064.50;79.00;;;;;;;-19.55;77.64;101476.48;1735848;82;21201;-31
2021/01/20 00:10:37;;;;;;;1163.22;87.25;;;;;;;-19.56;77.27;101478.05;1735906;82;21035;-31
2021/01/20 00:13:06;;;;;;;1282.68;91.47;;;;;;;-19.58;77.19;101483.49;1735901;81;20948;-29
2021/01/20 00:15:34;;;;;;;833.45;62.17;;;;;;;-19.58;77.22;101487.20;1735928;82;20924;-30
2021/01/20 00:18:02;;;;;;;403.65;39.45;;;;;;;-19.60;77.09;101487.37;1735876;82;21008;-31
2021/01/20 00:20:30;;;;;;;144.32;29.10;;;;;;;-19.65;76.92;101488.08;1735959;82;21262;-31
2021/01/20 00:22:58;;;;;;;166.43;27.93;;;;;;;-19.78;76.59;101490.67;1735837;82;20940;-30
2021/01/20 00:25:26;;;;;;;160.75;26.15;;;;;;;-19.87;76.58;101490.79;1735956;82;21071;-30
2021/01/20 00:27:55;;;;;;;126.42;28.47;;;;;;;-19.99;76.45;101490.24;1735765;82;20940;-31
2021/01/20 00:30:24;;;;;;;111.77;29.32;;;;;;;-20.12;76.42;101492.48;1735961;82;21093;-30
2021/01/20 00:32:52;;;;;;;116.60;31.00;;;;;;;-20.20;76.39;101495.95;1736048;81;21270;-30
2021/01/20 00:35:23;;;;;;;95.05;25.12;;;;;;;-20.32;76.35;101494.13;1724696;82;20953;-31
2021/01/20 00:37:51;;;;;;;104.97;28.05;;;;;;;-20.39;76.44;101496.18;1727411;82;21494;-31
2021/01/20 00:40:19;;;;;;;174.57;30.05;;;;;;;-20.45;76.37;101496.67;1735898;82;21015;-31
2021/01/20 00:42:46;;;;;;;91.85;25.65;;;;;;;-20.49;76.35;101493.31;1735936;82;21074;-30
2021/01/20 00:45:14;;;;;;;78.70;24.82;;;;;;;-20.51;76.63;101494.34;1735782;82;21437;-30
2021/01/20 00:47:42;;;;;;;72.78;25.23;;;;;;;-20.51;76.64;101488.19;1735852;82;21019;-32
2021/01/20 00:50:12;;;;;;;77.95;23.32;;;;;;;-20.53;76.52;101491.71;1735882;82;20935;-30
2021/01/20 00:52:40;;;;;;;88.85;25.80;;;;;;;-20.57;76.37;101492.38;1735956;82;20964;-30
2021/01/20 00:55:12;;;;;;;73.55;23.38;;;;;;;-20.60;76.34;101496.92;1735945;82;20936;-32
2021/01/20 00:57:40;;;;;;;171.47;26.50;;;;;;;-20.61;76.40;101498.86;1735927;82;21200;-31
2021/01/20 01:00:09;;;;;;;183.05;26.97;;;;;;;-20.58;76.48;101493.97;1745361;82;20951;-30
2021/01/20 01:02:39;;;;;;;214.12;27.98;;;;;;;-20.56;76.50;101498.73;1749304;82;20999;-30
2021/01/20 01:05:09;;;;;;;184.25;27.40;;;;;;;-20.52;76.58;101496.27;1749777;82;21050;-31
2021/01/20 01:07:37;;;;;;;480.95;38.55;;;;;;;-20.47;76.62;101492.78;1749993;82;21555;-31
2021/01/20 01:10:07;;;;;;;429.18;35.30;;;;;;;-20.42;76.64;101494.58;1749925;82;22357;-31
2021/01/20 01:12:39;;;;;;;576.97;48.80;;;;;;;-20.38;76.71;101497.95;1746304;82;20995;-31
2021/01/20 01:15:09;;;;;;;914.05;70.72;;;;;;;-20.31;76.85;101499.25;1749911;82;21035;-31
2021/01/20 01:17:37;;;;;;;542.58;45.92;;;;;;;-20.17;77.18;101494.75;1749809;82;21043;-31
2021/01/20 01:20:07;;;;;;;512.83;46.20;;;;;;;-20.05;77.18;101495.34;1749913;82;21367;-31
2021/01/20 01:22:34;;;;;;;555.83;47.80;;;;;;;-19.97;77.10;101493.77;1749982;81;22323;-31
2021/01/20 01:25:04;;;;;;;547.45;48.15;;;;;;;-19.90;77.09;101494.16;1749773;82;20951;-32
2021/01/20 01:27:33;;;;;;;628.62;46.98;;;;;;;-19.80;77.43;101499.48;1749893;82;20996;-30
2021/01/20 01:30:05;;;;;;;636.70;48.83;;;;;;;-19.68;77.34;101500.92;1749794;82;20876;-31
2021/01/20 01:32:34;;;;;;;643.50;48.87;;;;;;;-19.59;77.24;101502.70;1749749;80;20896;-30
2021/01/20 01:35:05;;;;;;;761.73;50.52;;;;;;;-19.54;77.03;101509.09;1749864;82;21483;-32
2021/01/20 01:37:33;;;;;;;491.10;45.00;;;;;;;-19.52;77.00;101508.91;1749815;82;21426;-31
2021/01/20 01:40:11;;;;;;;582.23;46.50;;;;;;;-19.54;76.87;101502.92;1749767;82;21002;-31
2021/01/20 01:42:50;;;;;;;603.33;48.63;;;;;;;-19.53;76.82;101505.55;1810510;77;22811;-31
2021/01/20 01:45:19;;;;;;;453.08;37.95;;;;;;;-19.60;76.71;101500.94;1782384;80;20979;-30
2021/01/20 01:47:47;;;;;;;426.20;30.77;;;;;;;-19.65;76.62;101500.05;1782454;80;22297;-31
2021/01/20 01:50:16;;;;;;;287.45;30.37;;;;;;;-19.74;76.44;101503.00;1782384;80;21034;-31
2021/01/20 01:52:44;;;;;;;357.90;31.57;;;;;;;-19.86;76.09;101502.42;1782246;80;20931;-32
2021/01/20 01:55:31;;;;;;;372.50;31.52;;;;;;;-20.03;75.82;101506.27;1782268;80;20876;-32
2021/01/20 01:58:02;;;;;;;414.73;36.05;;;;;;;-20.23;75.68;101501.37;1780652;80;20915;-31
2021/01/20 02:00:34;;;;;;;357.85;33.45;;;;;;;-20.39;75.59;101498.31;1751714;80;21085;-32
2021/01/20 02:03:04;;;;;;;383.80;37.88;;;;;;;-20.52;75.56;101508.25;1780762;80;20974;-32
2021/01/20 02:05:34;;;;;;;754.17;57.98;;;;;;;-20.62;75.61;101518.03;1782288;80;20983;-31
2021/01/20 02:08:07;;;;;;;487.23;40.70;;;;;;;-20.70;75.73;101515.52;1782305;80;21009;-31
2021/01/20 02:10:36;;;;;;;535.15;47.50;;;;;;;-20.70;75.87;101524.47;1781242;80;20911;-32
2021/01/20 02:16:22;;;;;;;591.92;50.50;;;;;;;-20.55;76.30;101532.52;1890106;76;22677;-30
2021/01/20 02:18:53;;;;;;;609.90;52.03;;;;;;;-20.60;76.19;101535.97;1861076;77;21398;-36
2021/01/20 02:22:01;;;;;;;541.45;47.50;;;;;;;-20.63;76.04;101535.60;1860794;77;21134;-31
2021/01/20 02:25:09;;;;;;;488.45;44.27;;;;;;;-20.63;76.09;101544.22;1861048;77;21033;-31
2021/01/20 02:28:06;;;;;;;414.73;39.03;;;;;;;-20.64;76.09;101546.52;1859255;77;20937;-31
2021/01/20 02:30:37;;;;;;;376.27;37.93;;;;;;;-20.67;76.08;101548.23;1861098;77;20965;-31
2021/01/20 02:33:06;;;;;;;390.43;38.30;;;;;;;-20.63;76.23;101550.38;1859096;77;20970;-31
2021/01/20 02:35:38;;;;;;;262.88;31.95;;;;;;;-20.60;76.34;101556.91;1820169;77;22820;-30
2021/01/20 02:38:06;;;;;;;143.90;28.25;;;;;;;-20.54;76.33;101547.83;1861104;77;20982;-31
2021/01/20 02:40:38;;;;;;;147.45;28.20;;;;;;;-20.50;76.35;101540.45;1841119;77;20959;-30
2021/01/20 02:43:08;;;;;;;124.18;26.07;;;;;;;-20.45;76.41;101538.23;1854541;77;21022;-31
2021/01/20 02:45:54;;;;;;;164.05;25.37;;;;;;;-20.45;76.37;101538.56;1861063;77;21025;-31
2021/01/20 02:48:22;;;;;;;235.13;29.42;;;;;;;-20.53;76.12;101544.67;1861080;77;21348;-31
2021/01/20 02:50:51;;;;;;;463.35;42.45;;;;;;;-20.61;76.07;101546.52;1861153;77;21414;-30
2021/01/20 02:53:20;;;;;;;294.30;31.93;;;;;;;-20.63;76.31;101549.14;1861050;77;20919;-30
2021/01/20 02:56:07;;;;;;;194.90;29.42;;;;;;;-20.58;76.46;101552.19;1860956;77;20966;-31
2021/01/20 02:58:52;;;;;;;137.40;25.65;;;;;;;-20.58;76.34;101545.70;1860659;77;20891;-31
2021/01/20 03:01:30;;;;;;;138.77;26.10;;;;;;;-20.59;76.29;101543.90;1830852;77;21364;-30
2021/01/20 03:04:00;;;;;;;105.92;27.90;;;;;;;-20.58;76.31;101535.84;1860981;77;20962;-31
2021/01/20 03:06:28;;;;;;;116.00;27.77;;;;;;;-20.63;76.23;101532.27;1828179;77;20946;-30
2021/01/20 03:08:56;;;;;;;105.00;27.10;;;;;;;-20.76;76.07;101530.74;1801955;77;20986;-29
2021/01/20 03:11:24;;;;;;;92.72;25.50;;;;;;;-20.87;75.95;101536.83;1861074;77;21002;-30
2021/01/20 03:13:51;;;;;;;76.75;22.98;;;;;;;-20.96;75.93;101539.41;1828172;77;21372;-29
2021/01/20 03:16:28;;;;;;;66.75;22.13;;;;;;;-21.06;75.86;101541.42;1858835;77;22171;-31
2021/01/20 03:18:56;;;;;;;76.75;22.75;;;;;;;-21.09;75.99;101551.76;1858944;77;20991;-31
2021/01/20 03:21:25;;;;;;;73.60;24.15;;;;;;;-21.11;76.08;101556.84;1858899;77;20958;-31
2021/01/20 03:23:53;;;;;;;95.85;25.52;;;;;;;-21.11;76.14;101559.30;1830809;77;20998;-31
2021/01/20 03:26:20;;;;;;;92.02;26.75;;;;;;;-21.14;76.14;101563.48;1858591;77;21416;-30
2021/01/20 03:28:48;;;;;;;106.72;27.52;;;;;;;-21.14;76.21;101567.53;1858300;77;20943;-30
2021/01/20 03:31:16;;;;;;;223.90;33.92;;;;;;;-21.11;76.35;101563.86;1858252;77;21018;-31
2021/01/20 03:33:44;;;;;;;100.30;26.87;;;;;;;-21.04;76.54;101560.95;1858308;77;20860;-31
2021/01/20 03:36:11;;;;;;;77.72;23.18;;;;;;;-20.96;76.52;101552.61;1858308;77;20899;-33
2021/01/20 03:38:39;;;;;;;95.80;25.00;;;;;;;-20.90;76.43;101558.98;1858286;77;21197;-31
2021/01/20 03:41:07;;;;;;;90.80;25.80;;;;;;;-20.89;76.41;101563.21;1858242;77;20927;-32
2021/01/20 03:43:34;;;;;;;89.22;24.75;;;;;;;-20.92;76.29;101555.09;1858402;77;21026;-32
2021/01/20 03:46:02;;;;;;;86.60;23.65;;;;;;;-21.02;76.10;101559.56;1858195;77;20865;-31
2021/01/20 03:48:30;;;;;;;78.12;23.52;;;;;;;-21.15;75.87;101564.53;1858450;77;20954;-32
2021/01/20 03:50:58;;;;;;;63.30;20.72;;;;;;;-21.26;75.73;101567.74;1858247;77;21188;-31
2021/01/20 03:53:26;;;;;;;75.57;23.02;;;;;;;-21.35;75.71;101566.93;1858374;77;20990;-31
2021/01/20 03:55:54;;;;;;;68.15;22.17;;;;;;;-21.44;75.65;101562.63;1858280;77;20891;-31
2021/01/20 03:58:21;;;;;;;85.87;21.70;;;;;;;-21.47;75.66;101562.24;1858326;77;20958;-31
2021/01/20 04:00:49;;;;;;;73.42;21.27;;;;;;;-21.49;76.02;101557.48;1858333;77;20986;-31
2021/01/20 04:03:17;;;;;;;72.75;22.93;;;;;;;-21.44;76.17;101556.48;1858230;77;21183;-30
2021/01/20 04:05:49;;;;;;;67.20;21.07;;;;;;;-21.42;76.04;101558.78;1778302;77;20935;-32
2021/01/20 04:08:17;;;;;;;67.27;21.35;;;;;;;-21.45;75.92;101564.55;1858268;77;20962;-31
2021/01/20 04:10:45;;;;;;;70.30;22.80;;;;;;;-21.46;76.04;101551.71;1858258;77;21520;-31
2021/01/20 04:13:13;;;;;;;70.85;23.02;;;;;;;-21.43;76.04;101552.45;1858294;77;21010;-31
2021/01/20 04:15:41;;;;;;;59.40;21.07;;;;;;;-21.44;75.95;101551.92;1863127;76;21090;-31
2021/01/20 04:18:09;;;;;;;68.70;21.23;;;;;;;-21.50;75.88;101549.56;1866613;76;20962;-32
2021/01/20 04:20:38;;;;;;;75.60;20.88;;;;;;;-21.54;75.87;101544.95;1866775;76;21010;-31
2021/01/20 04:23:06;;;;;;;72.82;21.48;;;;;;;-21.60;75.83;101542.92;1866672;76;20985;-31
2021/01/20 04:25:34;;;;;;;64.90;20.92;;;;;;;-21.70;75.72;101550.41;1866752;76;20902;-31
2021/01/20 04:28:02;;;;;;;69.72;21.23;;;;;;;-21.80;75.65;101548.70;1866655;76;21374;-31
2021/01/20 04:30:30;;;;;;;54.58;19.77;;;;;;;-21.89;75.63;101549.97;1866692;76;20990;-32
2021/01/20 04:32:58;;;;;;;55.43;19.23;;;;;;;-21.99;75.61;101550.03;1866730;76;20954;-31
2021/01/20 04:35:26;;;;;;;70.87;22.45;;;;;;;-22.04;75.51;101567.33;1866643;76;20919;-31
2021/01/20 04:37:54;;;;;;;67.72;20.00;;;;;;;-22.11;75.51;101574.24;1866595;76;20935;-33
2021/01/20 04:40:21;;;;;;;217.30;28.02;;;;;;;-22.15;75.55;101581.91;1866806;76;21477;-30
2021/01/20 04:42:49;;;;;;;119.70;23.38;;;;;;;-22.17;75.67;101578.05;1866661;76;20958;-31
2021/01/20 04:45:17;;;;;;;69.27;21.00;;;;;;;-22.12;75.89;101572.47;1866691;76;20923;-30
2021/01/20 04:47:45;;;;;;;69.87;20.88;;;;;;;-22.10;75.79;101576.01;1866617;76;21017;-32
2021/01/20 04:50:13;;;;;;;116.80;21.97;;;;;;;-22.14;75.55;101576.30;1838372;76;20998;-28
2021/01/20 04:52:43;;;;;;;158.00;25.68;;;;;;;-22.14;75.68;101584.58;1811574;76;21305;-30
2021/01/20 04:55:11;;;;;;;71.97;21.25;;;;;;;-22.11;75.75;101588.98;1838098;76;20919;-31
2021/01/20 04:57:39;;;;;;;79.00;21.73;;;;;;;-22.09;75.79;101596.24;1866723;76;21378;-30
2021/01/20 05:00:08;;;;;;;77.10;20.92;;;;;;;-22.08;75.77;101593.09;1866634;76;20974;-29
2021/01/20 05:02:36;;;;;;;63.35;20.68;;;;;;;-22.05;75.83;101596.27;1866763;76;20979;-31
2021/01/20 05:05:06;;;;;;;60.40;19.62;;;;;;;-22.01;75.90;101600.56;1866692;76;21193;-30
2021/01/20 05:07:36;;;;;;;71.85;21.33;;;;;;;-22.02;75.79;101609.85;1866608;76;20990;-31
2021/01/20 05:10:06;;;;;;;59.15;20.55;;;;;;;-22.07;75.64;101618.21;1866710;76;20883;-31
2021/01/20 05:12:40;;;;;;;71.97;21.42;;;;;;;-22.11;75.73;101609.87;1866721;76;21437;-31
2021/01/20 05:15:11;;;;;;;66.45;20.23;;;;;;;-22.11;75.79;101612.33;1865228;76;21029;-31
2021/01/20 05:18:03;;;;;;;68.57;19.12;;;;;;;-22.14;75.63;101609.15;1860102;77;22150;-30
2021/01/20 05:20:36;;;;;;;57.05;20.57;;;;;;;-22.22;75.46;101616.20;1860242;77;21430;-32
2021/01/20 05:23:09;;;;;;;59.48;19.75;;;;;;;-22.31;75.45;101620.47;1860297;77;21124;-31
2021/01/20 05:25:47;;;;;;;67.55;20.72;;;;;;;-22.34;75.50;101616.72;1860350;77;20970;-30
2021/01/20 05:28:28;;;;;;;57.98;17.70;;;;;;;-22.37;75.41;101623.33;1860421;77;21557;-32
2021/01/20 05:30:59;;;;;;;58.63;19.70;;;;;;;-22.42;75.36;101634.13;1860204;77;21358;-33
2021/01/20 05:33:38;;;;;;;65.47;18.25;;;;;;;-22.46;75.30;101628.31;1860286;77;21129;-30
2021/01/20 05:36:11;;;;;;;59.58;17.82;;;;;;;-22.47;75.39;101627.77;1860215;77;21401;-32
2021/01/20 05:38:51;;;;;;;56.80;18.50;;;;;;;-22.47;75.47;101631.13;1860208;77;20958;-30
2021/01/20 05:41:24;;;;;;;68.37;17.77;;;;;;;-22.48;75.40;101635.82;1860461;77;20970;-32
2021/01/20 05:43:54;;;;;;;97.67;20.17;;;;;;;-22.47;75.46;101640.05;1859850;77;21365;-30
2021/01/20 05:46:35;;;;;;;103.92;21.07;;;;;;;-22.44;75.48;101638.86;1860368;77;20927;-30
2021/01/20 05:49:04;;;;;;;74.72;21.10;;;;;;;-22.37;75.77;101634.38;1860055;77;20954;-31
2021/01/20 05:51:44;;;;;;;57.38;18.57;;;;;;;-22.25;75.85;101630.19;1827739;77;20915;-30
2021/01/20 05:54:12;;;;;;;60.08;19.40;;;;;;;-22.18;75.76;101638.02;1860310;77;20910;-31
2021/01/20 05:56:40;;;;;;;57.27;18.23;;;;;;;-22.15;75.78;101635.63;1827614;77;22118;-29
2021/01/20 05:59:11;;;;;;;63.23;20.48;;;;;;;-22.11;75.70;101640.59;1860185;77;20982;-30
2021/01/20 06:01:39;;;;;;;62.95;19.52;;;;;;;-22.09;75.64;101646.61;1860468;77;20958;-30
2021/01/20 06:04:07;;;;;;;60.80;20.27;;;;;;;-22.05;75.69;101645.42;1860193;77;21025;-32
2021/01/20 06:06:35;;;;;;;81.87;22.27;;;;;;;-22.01;75.71;101646.03;1860280;77;20998;-30
2021/01/20 06:09:03;;;;;;;59.27;18.92;;;;;;;-21.95;75.69;101649.96;1860266;77;21351;-31
2021/01/20 06:11:31;;;;;;;62.35;19.37;;;;;;;-21.88;75.80;101650.06;1860287;77;20931;-31
2021/01/20 06:14:02;;;;;;;61.73;19.98;;;;;;;-21.82;75.81;101645.96;1860285;77;21489;-32
2021/01/20 06:16:30;;;;;;;54.33;18.90;;;;;;;-21.74;75.87;101649.38;1859041;77;21418;-31
2021/01/20 06:19:05;;;;;;;55.70;18.60;;;;;;;-21.62;76.10;101659.55;1830115;77;20923;-31
2021/01/20 06:21:33;;;;;;;56.58;18.37;;;;;;;-21.50;76.28;101661.80;1829383;77;21386;-29
2021/01/20 06:24:10;;;;;;;51.50;18.55;;;;;;;-21.35;76.42;101666.23;1858122;77;20910;-32
2021/01/20 06:26:52;;;;;;;68.67;20.02;;;;;;;-21.23;76.45;101663.22;1858178;77;20939;-31
2021/01/20 06:29:23;;;;;;;62.93;19.60;;;;;;;-21.08;76.61;101656.03;1851982;77;21009;-31
2021/01/20 06:31:52;;;;;;;60.38;20.88;;;;;;;-20.90;76.71;101665.72;1858336;77;20907;-31
2021/01/20 06:34:20;;;;;;;62.40;20.65;;;;;;;-20.74;76.80;101664.80;1858052;77;21346;-31
2021/01/20 06:36:48;;;;;;;61.58;19.60;;;;;;;-20.58;76.74;101660.23;1858162;77;20970;-29
2021/01/20 06:39:32;;;;;;;65.25;19.42;;;;;;;-20.45;76.83;101662.65;1858156;76;21006;-30
2021/01/20 06:42:01;;;;;;;49.08;17.67;;;;;;;-20.30;76.79;101668.92;1858344;77;20935;-30
2021/01/20 06:44:29;;;;;;;52.78;18.55;;;;;;;-20.20;76.70;101673.08;1858267;76;20903;-30
2021/01/20 06:47:00;;;;;;;61.28;22.37;;;;;;;-20.10;76.64;101675.07;1858114;77;21160;-31
2021/01/20 06:49:33;;;;;;;59.53;20.27;;;;;;;-20.00;76.63;101673.06;1858035;77;20884;-29
2021/01/20 06:52:12;;;;;;;56.02;20.48;;;;;;;-19.87;76.70;101672.05;1858186;77;20939;-31
2021/01/20 06:54:42;;;;;;;72.27;20.32;;;;;;;-19.75;76.80;101670.19;1858057;77;20923;-30
2021/01/20 06:57:32;;;;;;;64.53;21.55;;;;;;;-19.60;76.87;101677.34;1858238;77;21010;-31
2021/01/20 07:00:15;;;;;;;65.67;19.60;;;;;;;-19.45;76.96;101680.44;1857853;77;21265;-32
2021/01/20 07:03:01;;;;;;;70.60;20.90;;;;;;;-19.27;77.02;101672.26;1858286;77;21187;-35
2021/01/20 07:05:33;;;;;;;67.40;19.77;;;;;;;-19.10;77.04;101677.60;1858295;77;20975;-31
2021/01/20 07:08:02;;;;;;;75.22;21.55;;;;;;;-18.97;77.07;101682.39;1858241;77;20907;-30
2021/01/20 07:10:33;;;;;;;65.30;20.12;;;;;;;-18.87;77.23;101678.56;1858356;77;20946;-32
2021/01/20 07:13:17;;;;;;;54.63;20.15;;;;;;;-18.77;77.26;101667.81;1854253;77;21356;-31
2021/01/20 07:15:53;;;;;;;57.53;20.37;;;;;;;-18.64;77.32;101677.22;1859472;76;21089;-32
2021/01/20 07:18:22;;;;;;;57.43;21.02;;;;;;;-18.51;77.43;101683.25;1866860;76;20914;-32
2021/01/20 07:20:51;;;;;;;52.27;20.20;;;;;;;-18.40;77.40;101684.51;1866846;76;20981;-31
2021/01/20 07:23:19;;;;;;;57.33;19.65;;;;;;;-18.29;77.42;101694.42;1866688;76;20942;-32
2021/01/20 07:25:48;;;;;;;58.33;21.57;;;;;;;-18.17;77.50;101685.41;1866720;76;21243;-30
2021/01/20 07:28:16;;;;;;;65.10;22.37;;;;;;;-18.04;77.49;101699.73;1866749;76;21009;-31
2021/01/20 07:30:44;;;;;;;108.20;28.62;;;;;;;-17.92;77.54;101692.45;1866855;76;21437;-29
2021/01/20 07:33:21;;;;;;;125.62;29.92;;;;;;;-17.76;77.59;101697.94;1866706;76;20918;-31
2021/01/20 07:35:49;;;;;;;194.22;48.48;;;;;;;-17.63;77.64;101700.22;1866707;76;20975;-30
2021/01/20 07:38:17;;;;;;;132.43;42.15;;;;;;;-17.49;77.68;101696.84;1866687;76;21202;-32
2021/01/20 07:40:45;;;;;;;127.87;29.75;;;;;;;-17.34;77.69;101686.55;1866671;76;21518;-31
2021/01/20 07:43:23;;;;;;;65.08;25.85;;;;;;;-17.21;77.73;101686.34;1866741;76;21152;-31
2021/01/20 07:45:52;;;;;;;85.28;25.57;;;;;;;-17.07;77.78;101692.83;1866840;76;20910;-30
2021/01/20 07:48:30;;;;;;;86.42;26.40;;;;;;;-16.89;77.87;101697.69;1866707;76;20950;-31
2021/01/20 07:50:58;;;;;;;76.05;25.77;;;;;;;-16.76;77.80;101693.39;1866787;76;21197;-31
2021/01/20 07:53:26;;;;;;;83.82;26.17;;;;;;;-16.60;77.82;101700.02;1866728;76;20973;-31
2021/01/20 07:55:54;;;;;;;80.50;28.60;;;;;;;-16.48;77.70;101707.59;1866768;76;20966;-31
2021/01/20 07:58:27;;;;;;;67.58;25.45;;;;;;;-16.39;77.80;101705.58;1866763;76;20891;-31
2021/01/20 08:00:56;;;;;;;72.10;25.17;;;;;;;-16.26;77.75;101707.46;1866588;76;21009;-32
2021/01/20 08:03:35;;;;;;;67.95;23.83;;;;;;;-16.12;77.73;101706.82;1866793;76;22342;-30
2021/01/20 08:06:07;;;;;;;85.38;27.10;;;;;;;-15.99;77.75;101714.89;1866641;76;21406;-31
2021/01/20 08:08:35;;;;;;;82.85;26.15;;;;;;;-15.81;77.63;101722.16;1866738;76;20910;-31
2021/01/20 08:11:04;;;;;;;90.50;29.30;;;;;;;-15.69;77.49;101721.70;1864985;76;20926;-30
2021/01/20 08:13:32;;;;;;;92.33;30.12;;;;;;;-15.62;77.24;101716.69;1866672;76;20914;-32
2021/01/20 08:16:00;;;;;;;80.60;26.70;;;;;;;-15.49;77.48;101715.16;1866292;76;21225;-31
2021/01/20 08:18:28;;;;;;;74.07;25.65;;;;;;;-15.30;77.59;101721.70;1827676;77;20963;-32
2021/01/20 08:20:57;;;;;;;82.53;28.77;;;;;;;-15.14;77.41;101720.84;1860250;77;21002;-32
2021/01/20 08:23:39;;;;;;;103.90;27.10;;;;;;;-14.98;77.22;101717.11;1860448;77;21017;-31
2021/01/20 08:26:07;;;;;;;73.70;26.37;;;;;;;-14.92;77.17;101717.75;1860287;77;20930;-32
2021/01/20 08:28:35;;;;;;;71.77;26.37;;;;;;;-14.79;76.85;101718.66;1860371;77;21249;-32
2021/01/20 08:31:20;;;;;;;66.33;26.07;;;;;;;-14.62;76.87;101717.53;1860351;77;20911;-31
2021/01/20 08:33:48;;;;;;;148.78;32.33;;;;;;;-14.47;76.60;101728.52;1860322;77;21504;-31
2021/01/20 08:36:23;;;;;;;69.75;24.80;;;;;;;-14.36;76.24;101737.08;1814736;77;21532;-31
2021/01/20 08:39:07;;;;;;;75.80;27.85;;;;;;;-14.31;75.85;101730.61;1860539;77;20914;-31
2021/01/20 08:41:34;;;;;;;74.67;26.77;;;;;;;-14.30;75.73;101735.20;1860393;77;21196;-30
2021/01/20 08:44:15;;;;;;;129.25;46.37;;;;;;;-14.23;75.02;101731.40;1860308;77;21057;-32
2021/01/20 08:46:47;;;;;;;76.57;28.95;;;;;;;-14.11;75.08;101728.03;1860396;77;20872;-30
2021/01/20 08:49:18;;;;;;;73.37;25.72;;;;;;;-13.93;74.64;101731.83;1828199;77;21010;-31
2021/01/20 08:51:57;;;;;;;78.52;26.45;;;;;;;-13.78;74.33;101733.73;1860334;77;20978;-30
2021/01/20 08:54:25;;;;;;;86.40;25.75;;;;;;;-13.64;73.97;101740.98;1860353;77;21386;-30
2021/01/20 08:56:57;;;;;;;53.40;21.68;;;;;;;-13.51;73.57;101725.64;1860239;77;20879;-30
2021/01/20 08:59:48;;;;;;;74.92;26.00;;;;;;;-13.45;72.06;101719.14;1825971;77;21001;-31
2021/01/20 09:02:19;;;;;;;69.40;22.35;;;;;;;-13.37;72.08;101731.95;1860251;77;21041;-30
2021/01/20 09:04:55;;;;;;;65.60;23.60;;;;;;;-13.14;71.82;101726.70;1812759;77;22285;-32
2021/01/20 09:07:23;;;;;;;59.58;23.87;;;;;;;-13.00;71.71;101727.18;1784297;80;21026;-31
2021/01/20 09:09:51;;;;;;;59.80;23.95;;;;;;;-12.92;70.72;101722.94;1701639;80;22627;-28
2021/01/20 09:12:19;;;;;;;54.30;23.47;;;;;;;-12.87;70.67;101721.77;1784233;80;21497;-30
2021/01/20 09:14:49;;;;;;;58.33;23.60;;;;;;;-12.80;70.70;101719.11;1781551;80;21037;-30
2021/01/20 09:17:18;;;;;;;77.45;24.23;;;;;;;-12.68;69.95;101711.92;1784242;80;20971;-30
2021/01/20 09:19:46;;;;;;;61.40;23.50;;;;;;;-12.69;69.35;101710.55;1678601;80;83901;-31
2021/01/20 09:22:14;;;;;;;77.03;22.75;;;;;;;-12.58;69.25;101703.70;1593751;89;21368;-31
2021/01/20 09:24:42;;;;;;;57.10;23.38;;;;;;;-12.31;69.06;101705.44;1590977;90;20986;-31
2021/01/20 09:27:10;;;;;;;89.37;23.52;;;;;;;-12.11;68.44;101708.03;1593745;90;21413;-31
2021/01/20 09:29:38;;;;;;;68.85;23.05;;;;;;;-11.90;67.46;101704.99;1591141;90;21013;-32
2021/01/20 09:32:06;;;;;;;91.75;24.82;;;;;;;-11.80;66.46;101712.97;1593675;90;20955;-31
2021/01/20 09:34:35;;;;;;;125.65;22.40;;;;;;;-11.86;65.72;101714.52;1591151;89;21325;-32
2021/01/20 09:37:03;;;;;;;104.80;24.10;;;;;;;-11.72;65.20;101716.18;1593798;90;21027;-31
2021/01/20 09:39:30;;;;;;;132.70;26.17;;;;;;;-11.63;65.40;101719.50;1591096;90;21001;-31
2021/01/20 09:41:58;;;;;;;109.12;22.25;;;;;;;-11.45;65.23;101713.19;1593636;90;21016;-29
2021/01/20 09:44:26;;;;;;;57.00;20.57;;;;;;;-11.28;64.76;101704.70;1591162;89;20930;-30
2021/01/20 09:46:54;;;;;;;81.45;22.45;;;;;;;-11.12;64.49;101704.44;1593734;89;22205;-32
2021/01/20 09:49:23;;;;;;;101.10;23.70;;;;;;;-10.86;64.58;101707.13;1591063;90;21053;-31
2021/01/20 09:51:51;;;;;;;61.80;20.62;;;;;;;-10.62;63.60;101697.11;1593850;90;21526;-31
2021/01/20 09:54:21;;;;;;;73.45;20.10;;;;;;;-10.51;62.52;101705.95;1591006;90;20997;-33
2021/01/20 09:56:50;;;;;;;113.95;21.87;;;;;;;-10.34;62.64;101699.50;1593791;89;21064;-33
2021/01/20 09:59:19;;;;;;;86.17;20.45;;;;;;;-10.28;61.81;101705.03;1591139;90;22582;-31
2021/01/20 10:01:47;;;;;;;57.80;19.95;;;;;;;-10.10;60.38;101699.45;1593704;89;21035;-31
2021/01/20 10:04:15;;;;;;;109.97;25.50;;;;;;;-10.07;59.51;101697.59;1588771;90;21025;-30
2021/01/20 10:06:45;;;;;;;227.30;35.80;;;;;;;-10.28;59.41;101703.78;1618918;88;20959;-32
2021/01/20 10:09:13;;;;;;;38.33;18.27;;;;;;;-10.22;59.20;101702.18;1618137;88;21102;-32
2021/01/20 10:11:41;;;;;;;53.40;22.27;;;;;;;-10.13;59.09;101704.56;1590236;90;21294;-30
2021/01/20 10:14:08;;;;;;;119.62;23.27;;;;;;;-9.96;59.19;101692.24;1605109;88;21015;-30
2021/01/20 10:16:37;;;;;;;42.03;19.02;;;;;;;-9.88;58.83;101691.25;1617803;88;21032;-31
2021/01/20 10:20:09;;;;;;;50.48;20.23;;;;;;;-9.98;57.91;101694.60;1776910;79;22489;-34
2021/01/20 10:22:37;;;;;;;44.48;19.80;;;;;;;-10.17;57.81;101699.69;1749834;82;21311;-31
2021/01/20 10:25:07;;;;;;;52.03;19.48;;;;;;;-10.05;58.34;101694.84;1749711;81;21377;-31
2021/01/20 10:27:35;;;;;;;47.90;19.42;;;;;;;-9.94;57.74;101692.00;1749802;81;21486;-31
2021/01/20 10:30:06;;;;;;;97.65;23.47;;;;;;;-9.89;57.70;101688.24;1749748;81;21007;-31
2021/01/20 10:32:35;;;;;;;142.60;24.15;;;;;;;-9.90;57.13;101686.48;1749824;82;21382;-31
2021/01/20 10:35:08;;;;;;;60.95;20.85;;;;;;;-9.90;56.47;101688.09;1749693;80;20920;-30
2021/01/20 10:37:34;;;;;;;44.98;19.50;;;;;;;-10.00;56.41;101686.44;1749745;82;22277;-32
2021/01/20 10:40:03;;;;;;;42.15;19.67;;;;;;;-9.92;56.08;101683.34;1749633;81;20975;-31
2021/01/20 10:42:30;;;;;;;48.33;20.35;;;;;;;-9.94;56.28;101679.47;1749780;82;20975;-32
2021/01/20 10:45:00;;;;;;;45.33;20.40;;;;;;;-9.91;56.81;101684.73;1749648;81;21536;-32
2021/01/20 10:47:27;;;;;;;50.25;22.32;;;;;;;-9.84;56.23;101686.99;1749738;82;20982;-31
2021/01/20 10:49:56;;;;;;;44.77;20.62;;;;;;;-9.71;55.94;101689.29;1749707;82;21003;-32
2021/01/20 10:52:24;;;;;;;55.63;22.07;;;;;;;-9.79;55.65;101690.25;1749678;82;21030;-32
2021/01/20 10:54:52;;;;;;;49.33;20.20;;;;;;;-9.87;55.22;101679.58;1749773;82;21002;-30
2021/01/20 10:57:20;;;;;;;47.58;21.82;;;;;;;-10.01;55.82;101678.42;1675352;82;67678;-31
2021/01/20 10:59:47;;;;;;;54.45;20.90;;;;;;;-10.05;55.71;101684.82;1641672;87;21034;-30
2021/01/20 11:02:15;;;;;;;41.08;20.27;;;;;;;-10.00;55.40;101676.06;1648332;87;21144;-30
2021/01/20 11:04:44;;;;;;;42.53;20.10;;;;;;;-10.01;55.62;101678.42;1641695;87;20982;-30
2021/01/20 11:07:12;;;;;;;71.57;20.90;;;;;;;-10.03;55.67;101674.91;1648400;87;21010;-30
2021/01/20 11:09:40;;;;;;;46.08;20.37;;;;;;;-10.02;56.32;101671.66;1641711;87;21070;-31
2021/01/20 11:12:09;;;;;;;46.35;19.70;;;;;;;-9.94;56.09;101671.95;1648364;87;20963;-30
2021/01/20 11:14:36;;;;;;;41.25;16.90;;;;;;;-9.73;55.95;101671.59;1641764;87;21459;-30
2021/01/20 11:17:05;;;;;;;48.90;20.00;;;;;;;-9.53;54.99;101668.62;1648409;87;21101;-32
2021/01/20 11:19:33;;;;;;;50.08;19.62;;;;;;;-9.73;53.92;101667.84;1636745;87;21011;-31